Time;durP1;ratioP1;P1;durP2;ratioP2;P2;SDS_P1;SDS_P2;PMS_P1;PMS_P2;Temp;Humidity;BMP_temperature;BMP_pressure;BME280_temperature;BME280_humidity;BME280_pressure;Samples;Min_cycle;Max_cycle;Signal;HPM_P1;HPM_P2
2022/11/09 00:02:28;;;;;;;;;;;;;;;14.53;90.08;99570.03;7371067;19;20006;-62
2022/11/09 00:05:09;;;;;;;;;;;;;;;14.54;89.79;99572.47;7367966;19;19926;-61
2022/11/09 00:07:50;;;;;;;;;;;;;;;14.55;89.57;99584.69;7366184;19;20208;-63
2022/11/09 00:10:31;;;;;;;;;;;;;;;14.57;89.55;99578.38;7366987;19;19935;-61
2022/11/09 00:13:11;;;;;;;;;;;;;;;14.59;90.01;99581.63;7368266;19;19926;-59
2022/11/09 00:15:56;;;;;;;;;;;;;;;14.60;90.55;99591.19;7367498;19;19939;-62
2022/11/09 00:18:37;;;;;;;;;;;;;;;14.59;89.77;99593.00;7367326;19;19922;-62
2022/11/09 00:21:19;;;;;;;;;;;;;;;14.59;89.29;99589.56;7365520;19;19931;-62
2022/11/09 00:24:00;;;;;;;;;;;;;;;14.56;88.56;99588.16;7368172;19;19922;-61
2022/11/09 00:26:40;;;;;;;;;;;;;;;14.53;88.26;99580.59;7364585;19;19918;-61
2022/11/09 00:29:21;;;;;;;;;;;;;;;14.54;89.24;99582.25;7365237;19;19994;-62
2022/11/09 00:32:02;;;;;;;;;;;;;;;14.54;89.81;99582.25;7369691;19;19923;-60
2022/11/09 00:34:43;;;;;;;;;;;;;;;14.56;89.98;99593.44;7367081;19;20476;-60
2022/11/09 00:37:23;;;;;;;;;;;;;;;14.56;89.74;99585.50;7368705;19;19922;-61
2022/11/09 00:40:04;;;;;;;;;;;;;;;14.57;90.04;99589.78;7369373;19;20364;-61
2022/11/09 00:42:45;;;;;;;;;;;;;;;14.57;89.95;99583.66;7368220;19;19964;-61
2022/11/09 00:45:26;;;;;;;;;;;;;;;14.54;89.43;99590.19;7364579;19;19919;-61
2022/11/09 00:48:06;;;;;;;;;;;;;;;14.51;88.57;99593.25;7369866;19;19926;-62
2022/11/09 00:50:57;;;;;;;;;;;;;;;14.48;88.29;99591.00;7367122;19;19930;-61
2022/11/09 00:53:38;;;;;;;;;;;;;;;14.47;88.78;99592.06;7370096;19;19926;-62
2022/11/09 00:56:19;;;;;;;;;;;;;;;14.46;88.95;99588.59;7366372;19;19914;-61
2022/11/09 00:58:59;;;;;;;;;;;;;;;14.43;88.12;99596.13;7364629;19;20252;-60
2022/11/09 01:01:40;;;;;;;;;;;;;;;14.35;87.90;99594.50;7366938;19;19933;-62
2022/11/09 01:04:21;;;;;;;;;;;;;;;14.33;89.20;99606.28;7367059;19;20315;-63
2022/11/09 01:07:02;;;;;;;;;;;;;;;14.33;89.35;99599.16;7364748;19;20350;-60
2022/11/09 01:09:44;;;;;;;;;;;;;;;14.32;88.90;99604.69;7368544;19;19957;-62
2022/11/09 01:12:24;;;;;;;;;;;;;;;14.28;88.67;99603.47;7366052;19;20575;-61
2022/11/09 01:15:05;;;;;;;;;;;;;;;14.27;89.22;99607.97;7364237;19;19958;-61
2022/11/09 01:17:46;;;;;;;;;;;;;;;14.29;90.06;99608.53;7365820;19;19940;-60
2022/11/09 01:20:27;;;;;;;;;;;;;;;14.28;89.73;99611.41;7367534;19;19923;-62
2022/11/09 01:23:08;;;;;;;;;;;;;;;14.29;89.53;99607.72;7367947;19;19930;-61
2022/11/09 01:25:56;;;;;;;;;;;;;;;14.29;89.31;99613.84;7366356;19;19910;-66
2022/11/09 01:28:37;;;;;;;;;;;;;;;14.29;89.33;99613.03;7367808;19;19918;-61
2022/11/09 01:31:19;;;;;;;;;;;;;;;14.32;89.82;99612.63;7365415;19;19994;-58
2022/11/09 01:33:59;;;;;;;;;;;;;;;14.32;89.39;99608.16;7365342;19;20485;-61
2022/11/09 01:36:40;;;;;;;;;;;;;;;14.29;89.11;99615.66;7366635;19;19929;-61
2022/11/09 01:39:21;;;;;;;;;;;;;;;14.22;88.93;99610.38;7362814;19;19998;-62
2022/11/09 01:42:01;;;;;;;;;;;;;;;14.19;89.36;99605.50;7365491;19;20238;-60
2022/11/09 01:44:42;;;;;;;;;;;;;;;14.22;90.08;99618.31;7367804;19;19923;-60
2022/11/09 01:47:24;;;;;;;;;;;;;;;14.24;90.16;99611.00;7367986;19;19923;-60
2022/11/09 01:50:05;;;;;;;;;;;;;;;14.21;89.41;99613.25;7365737;19;20615;-61
2022/11/09 01:52:47;;;;;;;;;;;;;;;14.20;88.96;99619.56;7364813;19;20356;-66
2022/11/09 01:55:28;;;;;;;;;;;;;;;14.18;89.02;99617.09;7365298;19;20443;-61
2022/11/09 01:58:14;;;;;;;;;;;;;;;14.22;89.95;99620.19;7362322;19;19915;-62
2022/11/09 02:00:55;;;;;;;;;;;;;;;14.24;89.48;99623.41;7366631;19;19919;-60
2022/11/09 02:03:39;;;;;;;;;;;;;;;14.22;88.97;99615.69;7367414;19;19934;-60
2022/11/09 02:06:21;;;;;;;;;;;;;;;14.21;88.91;99615.91;7364222;19;20349;-61
2022/11/09 02:09:08;;;;;;;;;;;;;;;14.21;88.76;99623.84;7365558;19;20439;-62
2022/11/09 02:11:49;;;;;;;;;;;;;;;14.21;89.83;99632.59;7363304;19;19926;-63
2022/11/09 02:14:31;;;;;;;;;;;;;;;14.19;89.41;99631.97;7362294;19;19910;-65
2022/11/09 02:17:12;;;;;;;;;;;;;;;14.16;88.94;99629.75;7365903;19;19919;-62
2022/11/09 02:19:53;;;;;;;;;;;;;;;14.18;89.16;99637.47;7364820;19;20352;-61
2022/11/09 02:22:33;;;;;;;;;;;;;;;14.20;89.18;99632.78;7367588;19;20280;-62
2022/11/09 02:25:15;;;;;;;;;;;;;;;14.20;89.61;99632.78;7365915;19;19939;-62
2022/11/09 02:27:55;;;;;;;;;;;;;;;14.21;89.29;99632.59;7362470;19;19934;-62
2022/11/09 02:30:36;;;;;;;;;;;;;;;14.20;89.28;99625.66;7366983;19;19922;-62
2022/11/09 02:33:17;;;;;;;;;;;;;;;14.19;89.00;99631.16;7366134;19;19923;-63
2022/11/09 02:35:58;;;;;;;;;;;;;;;14.17;88.97;99633.22;7362570;19;19915;-61
2022/11/09 02:38:38;;;;;;;;;;;;;;;14.14;89.01;99627.31;7364944;19;19951;-60
2022/11/09 02:41:20;;;;;;;;;;;;;;;14.14;89.57;99637.06;7364769;19;19919;-62
2022/11/09 02:44:01;;;;;;;;;;;;;;;14.15;89.81;99630.75;7361078;19;20394;-61
2022/11/09 02:46:41;;;;;;;;;;;;;;;14.17;89.70;99643.78;7362662;19;19915;-62
2022/11/09 02:49:22;;;;;;;;;;;;;;;14.17;89.75;99643.78;7363032;19;19918;-62
2022/11/09 02:52:03;;;;;;;;;;;;;;;14.14;89.28;99651.13;7362864;19;19914;-63
2022/11/09 02:54:43;;;;;;;;;;;;;;;14.16;89.77;99650.91;7366863;19;19915;-61
2022/11/09 02:57:24;;;;;;;;;;;;;;;14.20;91.01;99649.47;7360849;19;19931;-62
2022/11/09 03:00:05;;;;;;;;;;;;;;;14.19;90.37;99649.69;7360990;19;19922;-61
2022/11/09 03:02:46;;;;;;;;;;;;;;;14.16;89.87;99658.84;7366170;19;20478;-62
2022/11/09 03:05:27;;;;;;;;;;;;;;;14.14;89.69;99645.00;7363558;19;19929;-61
2022/11/09 03:08:07;;;;;;;;;;;;;;;14.13;89.62;99649.47;7362322;19;19919;-61
2022/11/09 03:10:48;;;;;;;;;;;;;;;14.12;90.16;99645.19;7363981;19;19919;-62
2022/11/09 03:13:29;;;;;;;;;;;;;;;14.13;90.72;99643.38;7361961;19;19927;-61
2022/11/09 03:16:10;;;;;;;;;;;;;;;14.12;90.24;99642.56;7362411;19;19926;-62
2022/11/09 03:18:51;;;;;;;;;;;;;;;14.12;90.22;99655.78;7363643;19;20244;-62
2022/11/09 03:21:32;;;;;;;;;;;;;;;14.11;90.34;99646.25;7364903;19;19919;-64
2022/11/09 03:24:13;;;;;;;;;;;;;;;14.11;90.28;99648.06;7364316;19;19930;-62
2022/11/09 03:26:53;;;;;;;;;;;;;;;14.14;90.84;99647.66;7360440;19;19970;-62
2022/11/09 03:29:34;;;;;;;;;;;;;;;14.13;90.50;99648.66;7365538;19;19998;-62
2022/11/09 03:32:15;;;;;;;;;;;;;;;14.12;90.35;99637.25;7361715;19;19929;-61
2022/11/09 03:34:55;;;;;;;;;;;;;;;14.12;90.48;99639.09;7364609;19;19926;-62
2022/11/09 03:37:36;;;;;;;;;;;;;;;14.11;90.32;99651.53;7366157;19;20632;-61
2022/11/09 03:40:17;;;;;;;;;;;;;;;14.09;90.43;99655.38;7361095;19;19926;-62
2022/11/09 03:42:57;;;;;;;;;;;;;;;14.08;90.53;99665.16;7361029;19;19935;-62
2022/11/09 03:45:38;;;;;;;;;;;;;;;14.07;90.56;99674.09;7361692;19;20133;-60
2022/11/09 03:48:19;;;;;;;;;;;;;;;14.06;90.35;99669.03;7364088;19;20272;-64
2022/11/09 03:50:59;;;;;;;;;;;;;;;14.02;90.37;99668.59;7364675;19;20244;-61
2022/11/09 03:53:40;;;;;;;;;;;;;;;14.04;90.49;99676.34;7365942;19;19926;-62
2022/11/09 03:56:21;;;;;;;;;;;;;;;14.01;90.22;99677.59;7367077;19;19919;-61
2022/11/09 03:59:02;;;;;;;;;;;;;;;14.02;90.34;99673.06;7370352;19;19923;-62
2022/11/09 04:01:42;;;;;;;;;;;;;;;14.05;90.09;99684.09;7365948;19;20637;-62
2022/11/09 04:04:23;;;;;;;;;;;;;;;14.04;89.34;99682.44;7368579;19;19921;-61
2022/11/09 04:07:04;;;;;;;;;;;;;;;14.04;89.34;99682.44;7368673;19;19986;-63
2022/11/09 04:09:44;;;;;;;;;;;;;;;14.02;89.14;99688.94;7371159;19;19919;-61
2022/11/09 04:12:25;;;;;;;;;;;;;;;14.00;89.37;99681.22;7371505;19;19940;-61
2022/11/09 04:15:06;;;;;;;;;;;;;;;14.01;89.64;99690.00;7364212;19;19922;-61
2022/11/09 04:17:56;;;;;;;;;;;;;;;14.01;89.18;99688.16;7368419;19;19950;-60
2022/11/09 04:20:37;;;;;;;;;;;;;;;14.02;88.71;99688.94;7370538;19;19930;-63
2022/11/09 04:23:17;;;;;;;;;;;;;;;14.00;88.71;99689.16;7369267;19;19936;-61
2022/11/09 04:25:58;;;;;;;;;;;;;;;13.97;88.79;99686.91;7369406;19;19923;-62
2022/11/09 04:28:39;;;;;;;;;;;;;;;13.96;88.97;99695.88;7366179;19;19922;-62
2022/11/09 04:31:19;;;;;;;;;;;;;;;13.97;89.38;99689.56;7370433;19;19934;-62
2022/11/09 04:34:00;;;;;;;;;;;;;;;13.98;89.12;99695.66;7370170;19;20338;-61
2022/11/09 04:36:41;;;;;;;;;;;;;;;13.96;89.08;99690.59;7366682;19;19925;-62
2022/11/09 04:39:21;;;;;;;;;;;;;;;13.97;88.68;99686.09;7368697;19;19914;-62
2022/11/09 04:42:02;;;;;;;;;;;;;;;13.95;88.68;99686.31;7368104;19;19922;-61
2022/11/09 04:44:43;;;;;;;;;;;;;;;13.95;88.56;99696.09;7356998;19;19919;-61
2022/11/09 04:47:23;;;;;;;;;;;;;;;13.96;88.81;99690.59;7368326;19;19992;-61
2022/11/09 04:50:04;;;;;;;;;;;;;;;13.96;88.75;99689.78;7370635;19;19929;-61
2022/11/09 04:52:45;;;;;;;;;;;;;;;13.97;88.86;99705.44;7367204;19;20173;-60
2022/11/09 04:55:26;;;;;;;;;;;;;;;13.96;88.90;99703.00;7370315;19;20307;-61
2022/11/09 04:58:07;;;;;;;;;;;;;;;13.96;89.00;99697.72;7368538;19;19918;-60
2022/11/09 05:00:48;;;;;;;;;;;;;;;13.97;89.20;99708.06;7363849;19;19990;-61
2022/11/09 05:03:29;;;;;;;;;;;;;;;13.98;89.43;99711.53;7369369;19;19946;-61
2022/11/09 05:09:00;;;;;;;;;;;;;;;13.99;89.63;99707.88;7365370;19;19982;-63
2022/11/09 05:11:41;;;;;;;;;;;;;;;13.96;90.05;99703.81;7367441;19;19930;-61
2022/11/09 05:14:22;;;;;;;;;;;;;;;13.97;90.83;99701.97;7365961;19;20022;-61
2022/11/09 05:17:03;;;;;;;;;;;;;;;13.93;91.21;99712.16;7366802;19;20328;-62
2022/11/09 05:19:43;;;;;;;;;;;;;;;13.92;92.15;99714.97;7368303;19;19917;-62
2022/11/09 05:25:14;;;;;;;;;;;;;;;13.85;92.85;99715.00;7362532;19;19947;-61
2022/11/09 05:27:55;;;;;;;;;;;;;;;13.83;93.19;99722.31;7368308;19;19933;-61
2022/11/09 05:30:36;;;;;;;;;;;;;;;13.83;93.75;99735.53;7367617;19;20423;-61
2022/11/09 05:33:17;;;;;;;;;;;;;;;13.83;94.07;99734.72;7369001;19;19933;-62
2022/11/09 05:35:57;;;;;;;;;;;;;;;13.83;94.40;99732.06;7368436;19;21225;-61
2022/11/09 05:38:38;;;;;;;;;;;;;;;13.81;93.99;99734.09;7365253;19;19919;-59
2022/11/09 05:41:18;;;;;;;;;;;;;;;13.75;93.55;99730.44;7365725;19;19910;-62
2022/11/09 05:43:59;;;;;;;;;;;;;;;13.71;93.23;99731.84;7363689;19;19923;-61
2022/11/09 05:46:40;;;;;;;;;;;;;;;13.67;92.63;99727.97;7366940;19;19939;-61
2022/11/09 05:49:21;;;;;;;;;;;;;;;13.64;93.09;99729.19;7368387;19;19914;-61
2022/11/09 05:52:02;;;;;;;;;;;;;;;13.65;93.01;99735.28;7366281;19;19929;-62
2022/11/09 05:54:42;;;;;;;;;;;;;;;13.62;92.86;99733.84;7369977;19;19942;-62
2022/11/09 05:57:23;;;;;;;;;;;;;;;13.61;92.84;99731.44;7366657;19;20665;-62
2022/11/09 06:00:04;;;;;;;;;;;;;;;13.57;92.50;99727.53;7362562;19;20177;-61
2022/11/09 06:02:45;;;;;;;;;;;;;;;13.53;92.41;99732.41;7370777;19;19928;-63
2022/11/09 06:05:25;;;;;;;;;;;;;;;13.54;93.64;99720.81;7364690;19;20379;-60
2022/11/09 06:08:08;;;;;;;;;;;;;;;13.54;93.72;99710.25;7363949;19;19934;-61
2022/11/09 06:10:48;;;;;;;;;;;;;;;13.56;93.17;99716.13;7365391;19;19929;-60
2022/11/09 06:13:29;;;;;;;;;;;;;;;13.54;93.28;99718.19;7361839;19;19922;-61
2022/11/09 06:16:10;;;;;;;;;;;;;;;13.52;93.24;99714.91;7366826;19;19926;-62
2022/11/09 06:18:51;;;;;;;;;;;;;;;13.50;93.53;99719.59;7366687;19;19932;-64
2022/11/09 06:21:31;;;;;;;;;;;;;;;13.50;94.89;99722.25;7361437;19;20005;-61
2022/11/09 06:24:12;;;;;;;;;;;;;;;13.53;94.88;99731.59;7365051;19;19915;-62
2022/11/09 06:26:53;;;;;;;;;;;;;;;13.51;94.74;99728.34;7361928;19;20257;-59
2022/11/09 06:29:33;;;;;;;;;;;;;;;13.48;94.47;99737.47;7360545;19;19962;-62
2022/11/09 06:32:14;;;;;;;;;;;;;;;13.44;94.14;99751.28;7363177;19;19935;-61
2022/11/09 06:34:55;;;;;;;;;;;;;;;13.42;93.51;99753.28;7363193;19;19964;-60
2022/11/09 06:37:35;;;;;;;;;;;;;;;13.37;93.78;99763.66;7368057;19;19938;-62
2022/11/09 06:40:16;;;;;;;;;;;;;;;13.37;93.56;99761.00;7364920;19;20423;-61
2022/11/09 06:42:58;;;;;;;;;;;;;;;13.33;93.40;99765.06;7361604;19;19930;-60
2022/11/09 06:45:38;;;;;;;;;;;;;;;13.30;93.32;99771.56;7364829;19;19964;-60
2022/11/09 06:48:19;;;;;;;;;;;;;;;13.26;93.47;99771.13;7363887;19;19923;-61
2022/11/09 06:51:01;;;;;;;;;;;;;;;13.28;93.93;99777.03;7367909;19;21396;-61
2022/11/09 06:53:41;;;;;;;;;;;;;;;13.33;94.40;99783.56;7364597;19;20356;-62
2022/11/09 06:56:22;;;;;;;;;;;;;;;13.36;93.90;99794.53;7361974;19;19922;-61
2022/11/09 06:59:03;;;;;;;;;;;;;;;13.35;93.41;99798.22;7366098;19;19925;-64
2022/11/09 07:01:43;;;;;;;;;;;;;;;13.31;92.95;99796.94;7362813;19;19926;-62
2022/11/09 07:04:24;;;;;;;;;;;;;;;13.30;93.02;99807.72;7366435;19;20258;-62
2022/11/09 07:07:05;;;;;;;;;;;;;;;13.25;93.08;99808.31;7364411;19;19918;-61
2022/11/09 07:09:46;;;;;;;;;;;;;;;13.26;93.37;99810.75;7368042;19;19938;-59
2022/11/09 07:12:27;;;;;;;;;;;;;;;13.26;93.12;99812.56;7362438;19;19951;-63
2022/11/09 07:15:08;;;;;;;;;;;;;;;13.28;93.10;99816.66;7363506;19;19937;-62
2022/11/09 07:17:49;;;;;;;;;;;;;;;13.34;93.84;99824.81;7366981;19;19915;-60
2022/11/09 07:20:30;;;;;;;;;;;;;;;13.34;93.53;99835.38;7363833;19;19944;-61
2022/11/09 07:23:10;;;;;;;;;;;;;;;13.34;93.42;99840.66;7361787;19;19951;-63
2022/11/09 07:25:51;;;;;;;;;;;;;;;13.31;93.43;99839.22;7361743;19;19919;-61
2022/11/09 07:28:32;;;;;;;;;;;;;;;13.33;93.42;99858.34;7357048;19;19926;-61
2022/11/09 07:31:13;;;;;;;;;;;;;;;13.33;93.41;99852.25;7367423;19;19946;-61
2022/11/09 07:33:54;;;;;;;;;;;;;;;13.33;93.46;99854.88;7372297;19;19993;-60
2022/11/09 07:36:35;;;;;;;;;;;;;;;13.34;93.65;99869.72;7371660;19;19946;-60
2022/11/09 07:39:16;;;;;;;;;;;;;;;13.35;93.88;99876.66;7368493;19;20013;-64
2022/11/09 07:41:57;;;;;;;;;;;;;;;13.42;94.28;99883.59;7370631;19;19986;-61
2022/11/09 07:44:37;;;;;;;;;;;;;;;13.44;93.80;99896.63;7367422;19;19984;-61
2022/11/09 07:47:18;;;;;;;;;;;;;;;13.42;93.34;99893.34;7372524;19;19942;-60
2022/11/09 07:49:59;;;;;;;;;;;;;;;13.44;93.39;99889.53;7370994;19;19930;-62
2022/11/09 07:52:40;;;;;;;;;;;;;;;13.39;92.77;99891.94;7368274;19;19925;-61
2022/11/09 07:55:21;;;;;;;;;;;;;;;13.42;93.05;99901.28;7371335;19;20677;-62
2022/11/09 07:58:03;;;;;;;;;;;;;;;13.43;93.03;99905.56;7369677;19;19978;-60
2022/11/09 08:00:44;;;;;;;;;;;;;;;13.46;92.87;99899.91;7370780;19;19922;-62
2022/11/09 08:03:25;;;;;;;;;;;;;;;13.43;92.84;99905.56;7367523;19;20248;-61
2022/11/09 08:06:05;;;;;;;;;;;;;;;13.45;92.92;99925.50;7369472;19;19923;-59
2022/11/09 08:08:48;;;;;;;;;;;;;;;13.47;92.86;99920.00;7372967;19;19926;-63
2022/11/09 08:11:29;;;;;;;;;;;;;;;13.49;93.50;99932.03;7370004;19;19931;-61
2022/11/09 08:14:09;;;;;;;;;;;;;;;13.52;93.29;99933.47;7369499;19;19927;-58
2022/11/09 08:16:51;;;;;;;;;;;;;;;13.54;92.93;99934.09;7369370;19;19943;-62
2022/11/09 08:19:32;;;;;;;;;;;;;;;13.54;92.57;99934.91;7367010;19;19987;-61
2022/11/09 08:22:12;;;;;;;;;;;;;;;13.56;92.83;99943.44;7369536;19;20551;-62
2022/11/09 08:24:53;;;;;;;;;;;;;;;13.55;92.93;99941.84;7369107;19;19918;-62
2022/11/09 08:27:38;;;;;;;;;;;;;;;13.58;93.42;99946.72;7364283;19;19938;-61
2022/11/09 08:30:20;;;;;;;;;;;;;;;13.59;93.53;99953.66;7368196;19;20282;-61
2022/11/09 08:33:01;;;;;;;;;;;;;;;13.65;94.02;99962.63;7373203;19;19930;-60
2022/11/09 08:35:42;;;;;;;;;;;;;;;13.66;93.63;99973.00;7364912;19;20317;-60
2022/11/09 08:38:23;;;;;;;;;;;;;;;13.65;93.21;99973.22;7368126;19;19926;-63
2022/11/09 08:41:03;;;;;;;;;;;;;;;13.58;92.66;99980.28;7367807;19;20296;-61
2022/11/09 08:43:44;;;;;;;;;;;;;;;13.57;93.30;99986.56;7366969;19;19925;-60
2022/11/09 08:46:25;;;;;;;;;;;;;;;13.59;93.27;99995.94;7365961;19;19923;-62
2022/11/09 08:49:05;;;;;;;;;;;;;;;13.61;92.64;100003.69;7368288;19;19931;-61
2022/11/09 08:51:46;;;;;;;;;;;;;;;13.62;92.39;100006.13;7368182;19;19922;-62
2022/11/09 08:54:27;;;;;;;;;;;;;;;13.66;92.52;100015.28;7370011;19;20279;-60
2022/11/09 08:57:08;;;;;;;;;;;;;;;13.73;92.76;100030.38;7366700;19;20263;-63
2022/11/09 08:59:49;;;;;;;;;;;;;;;13.74;92.42;100051.34;7362034;19;19950;-62
2022/11/09 09:02:30;;;;;;;;;;;;;;;13.76;91.26;100045.88;7368597;19;21089;-61
2022/11/09 09:05:11;;;;;;;;;;;;;;;13.74;90.56;100039.97;7363454;19;19915;-60
2022/11/09 09:07:52;;;;;;;;;;;;;;;13.73;89.73;100046.25;7365946;19;20521;-62
2022/11/09 09:10:34;;;;;;;;;;;;;;;13.77;89.97;100053.59;7364489;19;19967;-62
2022/11/09 09:13:15;;;;;;;;;;;;;;;13.80;89.92;100052.41;7364612;19;20348;-63
2022/11/09 09:15:56;;;;;;;;;;;;;;;13.80;89.38;100063.00;7366385;19;19919;-62
2022/11/09 09:18:36;;;;;;;;;;;;;;;13.85;89.07;100071.16;7367023;19;19926;-62
2022/11/09 09:21:17;;;;;;;;;;;;;;;13.81;88.34;100076.03;7366692;19;19990;-62
2022/11/09 09:23:58;;;;;;;;;;;;;;;13.77;88.19;100077.41;7365824;19;19922;-62
2022/11/09 09:26:39;;;;;;;;;;;;;;;13.78;88.40;100079.03;7361457;19;20510;-62
2022/11/09 09:29:19;;;;;;;;;;;;;;;13.77;88.44;100079.22;7365370;19;19922;-61
2022/11/09 09:32:00;;;;;;;;;;;;;;;13.80;88.52;100077.03;7367757;19;19918;-62
2022/11/09 09:34:41;;;;;;;;;;;;;;;13.85;88.03;100081.75;7364577;19;19942;-62
2022/11/09 09:37:22;;;;;;;;;;;;;;;13.84;87.80;100091.50;7369674;19;19926;-61
2022/11/09 09:40:02;;;;;;;;;;;;;;;13.84;87.98;100096.78;7365801;19;20645;-62
2022/11/09 09:42:44;;;;;;;;;;;;;;;13.88;87.78;100105.97;7362496;19;20006;-62
2022/11/09 09:45:28;;;;;;;;;;;;;;;13.93;88.39;100108.84;7363957;19;19922;-60
2022/11/09 09:48:19;;;;;;;;;;;;;;;13.99;87.51;100105.44;7367685;19;20341;-61
2022/11/09 09:51:03;;;;;;;;;;;;;;;13.95;85.76;100117.44;7367328;19;19943;-62
2022/11/09 09:53:48;;;;;;;;;;;;;;;13.96;86.05;100113.78;7368671;19;20336;-60
2022/11/09 09:56:32;;;;;;;;;;;;;;;13.98;85.73;100117.03;7366556;19;19926;-60
2022/11/09 09:59:19;;;;;;;;;;;;;;;14.07;85.55;100128.28;7363985;19;19918;-59
2022/11/09 10:02:00;;;;;;;;;;;;;;;14.07;84.18;100125.63;7366548;19;21089;-61
2022/11/09 10:04:41;;;;;;;;;;;;;;;14.02;83.95;100130.69;7368587;19;19939;-60
2022/11/09 10:07:32;;;;;;;;;;;;;;;14.05;84.66;100135.59;7365933;19;19926;-61
2022/11/09 10:10:13;;;;;;;;;;;;;;;14.05;84.45;100147.00;7368329;19;20030;-61
2022/11/09 10:13:01;;;;;;;;;;;;;;;14.09;84.54;100144.78;7363790;19;19926;-61
2022/11/09 10:15:51;;;;;;;;;;;;;;;14.21;86.00;100148.56;7366374;19;19910;-61
2022/11/09 10:18:41;;;;;;;;;;;;;;;14.23;83.69;100148.34;7366834;19;19939;-61
2022/11/09 10:21:31;;;;;;;;;;;;;;;14.24;83.54;100157.91;7362826;19;19922;-63
2022/11/09 10:24:14;;;;;;;;;;;;;;;14.21;83.24;100164.44;7358954;19;19934;-62
2022/11/09 10:26:56;;;;;;;;;;;;;;;14.26;83.20;100169.13;7364244;19;19921;-62
2022/11/09 10:29:40;;;;;;;;;;;;;;;14.27;82.32;100173.44;7361911;19;19926;-60
2022/11/09 10:32:22;;;;;;;;;;;;;;;14.30;82.70;100176.50;7364836;19;19935;-62
2022/11/09 10:35:12;;;;;;;;;;;;;;;14.36;83.17;100189.00;7363529;19;19926;-61
2022/11/09 10:37:53;;;;;;;;;;;;;;;14.35;82.18;100192.63;7363226;19;19919;-60
2022/11/09 10:40:48;;;;;;;;;;;;;;;14.38;81.66;100196.72;7365582;19;19923;-61
2022/11/09 10:43:28;;;;;;;;;;;;;;;14.37;81.16;100208.34;7363815;19;19923;-62
2022/11/09 10:46:09;;;;;;;;;;;;;;;14.45;82.35;100214.31;7364210;19;19972;-59
2022/11/09 10:48:51;;;;;;;;;;;;;;;14.54;83.59;100202.53;7368269;19;20398;-61
2022/11/09 10:51:37;;;;;;;;;;;;;;;14.57;81.67;100216.41;7365271;19;19927;-62
2022/11/09 10:54:20;;;;;;;;;;;;;;;14.59;81.27;100219.69;7362816;19;20568;-63
2022/11/09 10:57:11;;;;;;;;;;;;;;;14.60;81.25;100214.19;7363486;19;19953;-61
2022/11/09 10:59:55;;;;;;;;;;;;;;;14.59;79.66;100209.09;7360450;19;19943;-62
2022/11/09 11:02:40;;;;;;;;;;;;;;;14.55;79.45;100209.47;7365890;19;19937;-61
2022/11/09 11:05:24;;;;;;;;;;;;;;;14.58;80.13;100216.19;7362881;19;19926;-62
2022/11/09 11:08:15;;;;;;;;;;;;;;;14.59;80.05;100223.13;7362132;19;19926;-59
2022/11/09 11:11:05;;;;;;;;;;;;;;;14.62;79.64;100221.94;7363690;19;19919;-61
2022/11/09 11:13:47;;;;;;;;;;;;;;;14.63;78.55;100236.84;7362554;19;20264;-62
2022/11/09 11:16:31;;;;;;;;;;;;;;;14.64;78.27;100233.16;7363728;19;19936;-61
2022/11/09 11:19:25;;;;;;;;;;;;;;;14.62;78.22;100237.84;7359836;19;20006;-61
2022/11/09 11:22:13;;;;;;;;;;;;;;;14.64;77.78;100238.44;7366434;19;20011;-60
2022/11/09 11:24:52;;;;;;;;;;;;;;;14.70;79.03;100240.31;7366691;19;19923;-62
2022/11/09 11:27:43;;;;;;;;;;;;;;;14.70;78.06;100235.03;7361480;19;20601;-61
2022/11/09 11:30:27;;;;;;;;;;;;;;;14.75;78.12;100248.50;7362411;19;19918;-62
2022/11/09 11:33:17;;;;;;;;;;;;;;;14.87;82.48;100247.78;7360634;19;19926;-62
2022/11/09 11:36:06;;;;;;;;;;;;;;;14.83;78.77;100253.66;7359634;19;19918;-63
2022/11/09 11:38:54;;;;;;;;;;;;;;;14.86;78.98;100256.75;7365651;19;19963;-62
2022/11/09 11:41:45;;;;;;;;;;;;;;;14.89;77.77;100258.16;7363250;19;19925;-62
2022/11/09 11:44:35;;;;;;;;;;;;;;;14.94;77.27;100261.03;7361444;19;19929;-62
2022/11/09 11:47:23;;;;;;;;;;;;;;;14.91;76.23;100270.22;7365080;19;19930;-61
2022/11/09 11:50:05;;;;;;;;;;;;;;;14.95;77.42;100273.28;7365563;19;20344;-63
2022/11/09 11:52:55;;;;;;;;;;;;;;;15.03;76.75;100282.94;7361428;19;19942;-61
2022/11/09 11:55:45;;;;;;;;;;;;;;;15.15;78.68;100284.00;7362958;19;19926;-61
2022/11/09 11:58:26;;;;;;;;;;;;;;;15.20;78.22;100284.22;7363358;19;19922;-61
2022/11/09 12:01:16;;;;;;;;;;;;;;;15.24;77.17;100290.75;7361383;19;20698;-61
2022/11/09 12:04:05;;;;;;;;;;;;;;;15.23;75.72;100289.16;7360869;19;19933;-60
2022/11/09 12:06:56;;;;;;;;;;;;;;;15.22;74.97;100298.94;7361551;19;20338;-62
2022/11/09 12:09:38;;;;;;;;;;;;;;;15.20;74.28;100297.47;7359760;19;19922;-61
2022/11/09 12:12:26;;;;;;;;;;;;;;;15.18;75.12;100305.66;7358573;19;19914;-62
2022/11/09 12:15:18;;;;;;;;;;;;;;;15.19;73.34;100306.44;7362280;19;19956;-61
2022/11/09 12:17:59;;;;;;;;;;;;;;;15.21;72.82;100313.19;7361562;19;19990;-61
2022/11/09 12:20:47;;;;;;;;;;;;;;;15.24;72.81;100304.00;7367845;19;19919;-61
2022/11/09 12:23:39;;;;;;;;;;;;;;;15.29;73.95;100305.06;7368672;19;19937;-61
2022/11/09 12:26:40;;;;;;;;;;;;;;;15.32;73.80;100310.00;7367771;19;19918;-61
2022/11/09 12:29:23;;;;;;;;;;;;;;;15.33;72.45;100311.63;7363561;19;20022;-60
2022/11/09 12:32:04;;;;;;;;;;;;;;;15.31;71.34;100308.34;7366965;19;19923;-61
2022/11/09 12:34:52;;;;;;;;;;;;;;;15.30;71.74;100319.97;7364053;19;19927;-62
2022/11/09 12:37:36;;;;;;;;;;;;;;;15.33;72.35;100311.63;7366586;19;19914;-62
2022/11/09 12:40:17;;;;;;;;;;;;;;;15.34;71.16;100310.59;7366470;19;19926;-59
2022/11/09 12:43:07;;;;;;;;;;;;;;;15.42;72.96;100312.28;7366885;19;19953;-62
2022/11/09 12:45:50;;;;;;;;;;;;;;;15.49;73.75;100313.13;7365867;19;19989;-62
2022/11/09 12:48:33;;;;;;;;;;;;;;;15.53;72.31;100324.19;7364129;19;20472;-62
2022/11/09 12:51:14;;;;;;;;;;;;;;;15.53;72.00;100316.25;7364412;19;19923;-62
2022/11/09 12:53:56;;;;;;;;;;;;;;;15.54;71.08;100316.06;7367083;19;19918;-61
2022/11/09 12:56:43;;;;;;;;;;;;;;;15.53;71.09;100326.84;7369777;19;20340;-60
2022/11/09 12:59:25;;;;;;;;;;;;;;;15.47;70.47;100330.25;7364522;19;21172;-61
2022/11/09 13:02:18;;;;;;;;;;;;;;;15.47;71.64;100332.91;7345699;19;19937;-59
2022/11/09 13:05:00;;;;;;;;;;;;;;;15.49;71.51;100330.88;7354079;19;20015;-60
2022/11/09 13:07:48;;;;;;;;;;;;;;;15.51;71.38;100335.00;7360116;19;20002;-61
2022/11/09 13:10:30;;;;;;;;;;;;;;;15.56;71.91;100340.53;7361617;19;19919;-61
2022/11/09 13:13:11;;;;;;;;;;;;;;;15.56;70.27;100350.31;7358650;19;19933;-62
2022/11/09 13:16:01;;;;;;;;;;;;;;;15.62;70.27;100347.69;7358142;19;20305;-60
2022/11/09 13:18:42;;;;;;;;;;;;;;;15.70;70.78;100354.66;7361077;19;19933;-62
2022/11/09 13:21:23;;;;;;;;;;;;;;;15.70;69.27;100355.47;7360212;19;19978;-61
2022/11/09 13:24:13;;;;;;;;;;;;;;;15.67;67.63;100369.16;7364431;19;19930;-62
2022/11/09 13:26:55;;;;;;;;;;;;;;;15.65;67.69;100371.16;7360675;19;20426;-62
2022/11/09 13:29:39;;;;;;;;;;;;;;;15.71;69.68;100365.06;7357885;19;19915;-61
2022/11/09 13:32:20;;;;;;;;;;;;;;;15.76;69.45;100369.78;7365306;19;20098;-60
2022/11/09 13:35:02;;;;;;;;;;;;;;;15.78;68.75;100371.25;7365686;19;19956;-62
2022/11/09 13:37:45;;;;;;;;;;;;;;;15.85;68.25;100375.75;7366205;19;19921;-62
2022/11/09 13:40:30;;;;;;;;;;;;;;;15.92;68.62;100381.88;7362629;19;19929;-64
2022/11/09 13:43:11;;;;;;;;;;;;;;;15.93;66.79;100383.53;7363302;19;21683;-62
2022/11/09 13:45:54;;;;;;;;;;;;;;;15.92;66.61;100395.16;7362526;19;20038;-62
2022/11/09 13:48:37;;;;;;;;;;;;;;;15.86;66.32;100388.81;7362928;19;20547;-60
2022/11/09 13:51:21;;;;;;;;;;;;;;;15.90;68.47;100392.69;7362074;19;20356;-63
2022/11/09 13:54:04;;;;;;;;;;;;;;;15.91;67.38;100388.22;7366277;19;19936;-61
2022/11/09 13:56:46;;;;;;;;;;;;;;;15.91;67.26;100393.50;7362532;19;19915;-60
2022/11/09 13:59:31;;;;;;;;;;;;;;;15.92;66.92;100397.81;7359786;19;20313;-60
2022/11/09 14:02:21;;;;;;;;;;;;;;;15.91;66.58;100397.00;7363411;19;19925;-61
2022/11/09 14:05:01;;;;;;;;;;;;;;;15.94;67.35;100411.72;7356447;19;20342;-60
2022/11/09 14:07:42;;;;;;;;;;;;;;;15.93;66.68;100408.25;7358305;19;19922;-60